Terminal Aerodrome Forecast
Issued by NWS

Home | Current Version | Previous Version | Text Only | Print | Product List | Glossary On
Versions: 1 2 3 4 5 6 7 8 9 10 11 12 13 14 15 16
000
FTUS45 KABQ 021100
TAFFMN
TAF
KFMN 021120Z 0212/0312 29008G15KT P6SM SKC
     FM021900 28016G26KT P6SM SKC
     FM030200 28010KT P6SM SKC=

USA.gov is the U.S. government's official web portal to all federal, state and local government web resources and services.